sensor_id;sensor_type;location;lat;lon;timestamp;temperature;humidity
67275;DHT22;55463;52.324;5.122;2023-03-08T00:01:14;5.65;99.71
67275;DHT22;55463;52.324;5.122;2023-03-08T00:03:40;5.37;99.92
67275;DHT22;55463;52.324;5.122;2023-03-08T00:06:07;5.32;98.94
67275;DHT22;55463;52.324;5.122;2023-03-08T00:08:32;5.63;99.54
67275;DHT22;55463;52.324;5.122;2023-03-08T00:10:58;6.86;98.96
67275;DHT22;55463;52.324;5.122;2023-03-08T00:13:23;6.35;98.79
67275;DHT22;55463;52.324;5.122;2023-03-08T00:15:49;6.32;98.73
67275;DHT22;55463;52.324;5.122;2023-03-08T00:18:15;5.94;99.53
67275;DHT22;55463;52.324;5.122;2023-03-08T00:20:40;5.69;98.53
67275;DHT22;55463;52.324;5.122;2023-03-08T00:23:07;5.49;99.62
67275;DHT22;55463;52.324;5.122;2023-03-08T00:25:33;5.37;99.99
67275;DHT22;55463;52.324;5.122;2023-03-08T00:27:58;5.59;99.25
67275;DHT22;55463;52.324;5.122;2023-03-08T00:30:24;5.73;99.80
67275;DHT22;55463;52.324;5.122;2023-03-08T00:32:50;5.85;98.98
67275;DHT22;55463;52.324;5.122;2023-03-08T00:35:15;5.72;98.71
67275;DHT22;55463;52.324;5.122;2023-03-08T00:37:44;6.03;98.83
67275;DHT22;55463;52.324;5.122;2023-03-08T00:40:09;6.07;98.93
67275;DHT22;55463;52.324;5.122;2023-03-08T00:42:35;6.16;98.99
67275;DHT22;55463;52.324;5.122;2023-03-08T00:45:00;6.20;99.50
67275;DHT22;55463;52.324;5.122;2023-03-08T00:47:26;5.89;99.06
67275;DHT22;55463;52.324;5.122;2023-03-08T00:49:51;6.14;98.43
67275;DHT22;55463;52.324;5.122;2023-03-08T00:52:17;5.80;98.67
67275;DHT22;55463;52.324;5.122;2023-03-08T00:54:42;5.55;98.90
67275;DHT22;55463;52.324;5.122;2023-03-08T00:57:07;5.90;98.77
67275;DHT22;55463;52.324;5.122;2023-03-08T00:59:33;5.69;97.62
67275;DHT22;55463;52.324;5.122;2023-03-08T01:01:59;5.80;97.59
67275;DHT22;55463;52.324;5.122;2023-03-08T01:04:25;7.04;98.27
67275;DHT22;55463;52.324;5.122;2023-03-08T01:06:50;6.39;98.38
67275;DHT22;55463;52.324;5.122;2023-03-08T01:09:16;6.31;98.89
67275;DHT22;55463;52.324;5.122;2023-03-08T01:11:41;6.38;98.74
67275;DHT22;55463;52.324;5.122;2023-03-08T01:14:08;6.48;98.52
67275;DHT22;55463;52.324;5.122;2023-03-08T01:16:33;6.58;98.90
67275;DHT22;55463;52.324;5.122;2023-03-08T01:19:00;6.41;98.38
67275;DHT22;55463;52.324;5.122;2023-03-08T01:21:27;6.65;98.29
67275;DHT22;55463;52.324;5.122;2023-03-08T01:23:53;6.65;97.84
67275;DHT22;55463;52.324;5.122;2023-03-08T01:26:21;6.85;97.86
67275;DHT22;55463;52.324;5.122;2023-03-08T01:28:48;6.90;98.16
67275;DHT22;55463;52.324;5.122;2023-03-08T01:31:15;7.20;98.19
67275;DHT22;55463;52.324;5.122;2023-03-08T01:33:42;6.87;97.99
67275;DHT22;55463;52.324;5.122;2023-03-08T01:36:10;6.03;98.37
67275;DHT22;55463;52.324;5.122;2023-03-08T01:38:36;6.30;98.07
67275;DHT22;55463;52.324;5.122;2023-03-08T01:41:03;6.75;97.70
67275;DHT22;55463;52.324;5.122;2023-03-08T01:43:35;6.90;97.96
67275;DHT22;55463;52.324;5.122;2023-03-08T01:46:34;6.53;97.85
67275;DHT22;55463;52.324;5.122;2023-03-08T01:49:23;6.50;97.99
67275;DHT22;55463;52.324;5.122;2023-03-08T01:51:57;6.42;98.06
67275;DHT22;55463;52.324;5.122;2023-03-08T01:54:30;5.26;98.25
67275;DHT22;55463;52.324;5.122;2023-03-08T01:57:16;4.61;98.98
67275;DHT22;55463;52.324;5.122;2023-03-08T01:59:42;5.48;99.01
67275;DHT22;55463;52.324;5.122;2023-03-08T02:02:08;6.14;98.05
67275;DHT22;55463;52.324;5.122;2023-03-08T02:04:34;5.16;98.13
67275;DHT22;55463;52.324;5.122;2023-03-08T02:07:00;5.54;99.54
67275;DHT22;55463;52.324;5.122;2023-03-08T02:09:26;5.68;99.18
67275;DHT22;55463;52.324;5.122;2023-03-08T02:11:53;4.99;99.36
67275;DHT22;55463;52.324;5.122;2023-03-08T02:14:19;5.00;99.47
67275;DHT22;55463;52.324;5.122;2023-03-08T02:16:45;4.49;99.44
67275;DHT22;55463;52.324;5.122;2023-03-08T02:19:15;5.00;99.81
67275;DHT22;55463;52.324;5.122;2023-03-08T02:21:43;4.85;99.99
67275;DHT22;55463;52.324;5.122;2023-03-08T02:24:23;4.93;99.45
67275;DHT22;55463;52.324;5.122;2023-03-08T02:26:51;5.03;99.99
67275;DHT22;55463;52.324;5.122;2023-03-08T02:29:17;5.47;99.80
67275;DHT22;55463;52.324;5.122;2023-03-08T02:31:42;5.21;99.90
67275;DHT22;55463;52.324;5.122;2023-03-08T02:34:08;5.44;99.83
67275;DHT22;55463;52.324;5.122;2023-03-08T02:36:33;5.12;99.87
67275;DHT22;55463;52.324;5.122;2023-03-08T02:38:59;4.47;99.99
67275;DHT22;55463;52.324;5.122;2023-03-08T02:41:24;5.77;99.83
67275;DHT22;55463;52.324;5.122;2023-03-08T02:43:50;4.00;99.74
67275;DHT22;55463;52.324;5.122;2023-03-08T02:46:15;4.11;99.99
67275;DHT22;55463;52.324;5.122;2023-03-08T02:48:40;3.37;99.99
67275;DHT22;55463;52.324;5.122;2023-03-08T02:51:06;3.55;99.99
67275;DHT22;55463;52.324;5.122;2023-03-08T02:53:31;3.44;99.99
67275;DHT22;55463;52.324;5.122;2023-03-08T02:55:57;3.44;99.99
67275;DHT22;55463;52.324;5.122;2023-03-08T02:58:22;3.55;99.99
67275;DHT22;55463;52.324;5.122;2023-03-08T03:00:48;3.40;99.99
67275;DHT22;55463;52.324;5.122;2023-03-08T03:03:13;3.35;99.99
67275;DHT22;55463;52.324;5.122;2023-03-08T03:05:41;3.55;99.99
67275;DHT22;55463;52.324;5.122;2023-03-08T03:08:07;3.55;99.99
67275;DHT22;55463;52.324;5.122;2023-03-08T03:10:34;3.67;99.99
67275;DHT22;55463;52.324;5.122;2023-03-08T03:13:00;3.69;99.99
67275;DHT22;55463;52.324;5.122;2023-03-08T03:15:25;3.82;99.99
67275;DHT22;55463;52.324;5.122;2023-03-08T03:17:51;3.76;99.99
67275;DHT22;55463;52.324;5.122;2023-03-08T03:20:17;3.42;99.99
67275;DHT22;55463;52.324;5.122;2023-03-08T03:22:42;4.23;99.99
67275;DHT22;55463;52.324;5.122;2023-03-08T03:25:09;4.11;99.99
67275;DHT22;55463;52.324;5.122;2023-03-08T03:27:34;4.14;99.99
67275;DHT22;55463;52.324;5.122;2023-03-08T03:29:59;4.17;99.99
67275;DHT22;55463;52.324;5.122;2023-03-08T03:32:26;3.90;99.99
67275;DHT22;55463;52.324;5.122;2023-03-08T03:34:51;2.78;99.99
67275;DHT22;55463;52.324;5.122;2023-03-08T03:37:17;2.60;99.99
67275;DHT22;55463;52.324;5.122;2023-03-08T03:39:42;2.47;99.99
67275;DHT22;55463;52.324;5.122;2023-03-08T03:42:08;2.43;99.99
67275;DHT22;55463;52.324;5.122;2023-03-08T03:44:33;1.94;99.99
67275;DHT22;55463;52.324;5.122;2023-03-08T03:47:02;1.39;99.99
67275;DHT22;55463;52.324;5.122;2023-03-08T03:49:27;-0.02;99.99
67275;DHT22;55463;52.324;5.122;2023-03-08T03:51:53;-0.74;99.99
67275;DHT22;55463;52.324;5.122;2023-03-08T03:54:18;-1.12;99.99
67275;DHT22;55463;52.324;5.122;2023-03-08T03:56:44;-1.42;99.99
67275;DHT22;55463;52.324;5.122;2023-03-08T03:59:09;-1.64;99.99
67275;DHT22;55463;52.324;5.122;2023-03-08T04:01:34;-1.75;99.99
67275;DHT22;55463;52.324;5.122;2023-03-08T04:04:00;-1.81;99.99
67275;DHT22;55463;52.324;5.122;2023-03-08T04:06:27;-1.84;99.99
67275;DHT22;55463;52.324;5.122;2023-03-08T04:08:55;-1.88;99.99
67275;DHT22;55463;52.324;5.122;2023-03-08T04:11:25;-1.88;99.99
67275;DHT22;55463;52.324;5.122;2023-03-08T04:13:51;-1.85;99.99
67275;DHT22;55463;52.324;5.122;2023-03-08T04:16:20;-1.78;99.99
67275;DHT22;55463;52.324;5.122;2023-03-08T04:18:46;-1.82;99.99
67275;DHT22;55463;52.324;5.122;2023-03-08T04:21:12;-1.81;99.99
67275;DHT22;55463;52.324;5.122;2023-03-08T04:23:38;-1.77;99.99
67275;DHT22;55463;52.324;5.122;2023-03-08T04:26:04;-1.72;99.99
67275;DHT22;55463;52.324;5.122;2023-03-08T04:28:30;-1.70;99.99
67275;DHT22;55463;52.324;5.122;2023-03-08T04:30:58;-1.68;99.99
67275;DHT22;55463;52.324;5.122;2023-03-08T04:33:24;-1.71;99.99
67275;DHT22;55463;52.324;5.122;2023-03-08T04:35:49;-1.65;99.99
67275;DHT22;55463;52.324;5.122;2023-03-08T04:38:15;-1.60;99.99
67275;DHT22;55463;52.324;5.122;2023-03-08T04:40:50;-1.56;99.99
67275;DHT22;55463;52.324;5.122;2023-03-08T04:43:50;-1.56;99.99
67275;DHT22;55463;52.324;5.122;2023-03-08T04:46:17;-1.50;99.99
67275;DHT22;55463;52.324;5.122;2023-03-08T04:48:43;-1.51;99.99
67275;DHT22;55463;52.324;5.122;2023-03-08T04:51:10;-1.43;99.99
67275;DHT22;55463;52.324;5.122;2023-03-08T04:53:36;-1.43;99.99
67275;DHT22;55463;52.324;5.122;2023-03-08T04:56:04;-1.44;99.99
67275;DHT22;55463;52.324;5.122;2023-03-08T04:58:29;-1.42;99.99
67275;DHT22;55463;52.324;5.122;2023-03-08T05:00:55;-1.46;99.99
67275;DHT22;55463;52.324;5.122;2023-03-08T05:03:21;-1.42;99.99
67275;DHT22;55463;52.324;5.122;2023-03-08T05:05:52;-1.37;99.99
67275;DHT22;55463;52.324;5.122;2023-03-08T05:08:18;-1.26;99.99
67275;DHT22;55463;52.324;5.122;2023-03-08T05:10:55;-1.26;99.99
67275;DHT22;55463;52.324;5.122;2023-03-08T05:13:25;-1.30;99.99
67275;DHT22;55463;52.324;5.122;2023-03-08T05:15:51;-1.36;99.99
67275;DHT22;55463;52.324;5.122;2023-03-08T05:18:17;-1.47;99.99
67275;DHT22;55463;52.324;5.122;2023-03-08T05:20:42;-1.54;99.99
67275;DHT22;55463;52.324;5.122;2023-03-08T05:23:09;-1.63;99.99
67275;DHT22;55463;52.324;5.122;2023-03-08T05:25:40;-1.61;99.99
67275;DHT22;55463;52.324;5.122;2023-03-08T05:28:06;-1.65;99.99
67275;DHT22;55463;52.324;5.122;2023-03-08T05:30:32;-1.57;99.99
67275;DHT22;55463;52.324;5.122;2023-03-08T05:32:57;-1.47;99.99
67275;DHT22;55463;52.324;5.122;2023-03-08T05:35:22;-1.39;99.99
67275;DHT22;55463;52.324;5.122;2023-03-08T05:37:48;-1.47;99.99
67275;DHT22;55463;52.324;5.122;2023-03-08T05:40:14;-1.53;99.99
67275;DHT22;55463;52.324;5.122;2023-03-08T05:42:39;-1.54;99.99
67275;DHT22;55463;52.324;5.122;2023-03-08T05:45:05;-1.57;99.99
67275;DHT22;55463;52.324;5.122;2023-03-08T05:47:31;-1.48;99.99
67275;DHT22;55463;52.324;5.122;2023-03-08T05:49:56;-1.48;99.99
67275;DHT22;55463;52.324;5.122;2023-03-08T05:52:21;-1.42;99.99
67275;DHT22;55463;52.324;5.122;2023-03-08T05:54:47;-1.35;99.99
67275;DHT22;55463;52.324;5.122;2023-03-08T05:57:13;-1.36;99.99
67275;DHT22;55463;52.324;5.122;2023-03-08T05:59:38;-1.37;99.99
67275;DHT22;55463;52.324;5.122;2023-03-08T06:02:03;-1.42;99.99
67275;DHT22;55463;52.324;5.122;2023-03-08T06:04:29;-1.44;99.99
67275;DHT22;55463;52.324;5.122;2023-03-08T06:06:54;-1.48;99.99
67275;DHT22;55463;52.324;5.122;2023-03-08T06:09:20;-1.54;99.99
67275;DHT22;55463;52.324;5.122;2023-03-08T06:11:45;-1.57;99.99
67275;DHT22;55463;52.324;5.122;2023-03-08T06:14:11;-1.58;99.99
67275;DHT22;55463;52.324;5.122;2023-03-08T06:16:36;-1.57;99.99
67275;DHT22;55463;52.324;5.122;2023-03-08T06:19:02;-1.58;99.99
67275;DHT22;55463;52.324;5.122;2023-03-08T06:21:27;-1.53;99.99
67275;DHT22;55463;52.324;5.122;2023-03-08T06:23:53;-1.46;99.99
67275;DHT22;55463;52.324;5.122;2023-03-08T06:26:18;-1.39;99.99
67275;DHT22;55463;52.324;5.122;2023-03-08T06:28:44;-1.32;99.99
67275;DHT22;55463;52.324;5.122;2023-03-08T06:31:12;-1.28;99.99
67275;DHT22;55463;52.324;5.122;2023-03-08T06:33:38;-1.23;99.99
67275;DHT22;55463;52.324;5.122;2023-03-08T06:36:10;-1.12;99.99
67275;DHT22;55463;52.324;5.122;2023-03-08T06:38:40;-0.88;99.99
67275;DHT22;55463;52.324;5.122;2023-03-08T06:41:07;-0.84;99.99
67275;DHT22;55463;52.324;5.122;2023-03-08T06:43:33;-0.77;99.99
67275;DHT22;55463;52.324;5.122;2023-03-08T06:46:20;-0.66;99.99
67275;DHT22;55463;52.324;5.122;2023-03-08T06:48:46;-0.60;99.99
67275;DHT22;55463;52.324;5.122;2023-03-08T06:51:12;-0.50;99.99
67275;DHT22;55463;52.324;5.122;2023-03-08T06:53:37;-0.41;99.99
67275;DHT22;55463;52.324;5.122;2023-03-08T06:56:04;-0.32;99.99
67275;DHT22;55463;52.324;5.122;2023-03-08T06:58:31;-0.25;99.99
67275;DHT22;55463;52.324;5.122;2023-03-08T07:00:57;-0.19;99.99
67275;DHT22;55463;52.324;5.122;2023-03-08T07:03:28;-0.09;99.99
67275;DHT22;55463;52.324;5.122;2023-03-08T07:06:01;-0.11;99.99
67275;DHT22;55463;52.324;5.122;2023-03-08T07:08:27;-0.04;99.99
67275;DHT22;55463;52.324;5.122;2023-03-08T07:10:53;-0.08;99.99
67275;DHT22;55463;52.324;5.122;2023-03-08T07:13:18;-0.06;99.99
67275;DHT22;55463;52.324;5.122;2023-03-08T07:15:46;-0.13;99.99
67275;DHT22;55463;52.324;5.122;2023-03-08T07:18:11;-0.11;99.99
67275;DHT22;55463;52.324;5.122;2023-03-08T07:20:37;-0.08;99.99
67275;DHT22;55463;52.324;5.122;2023-03-08T07:23:02;-0.06;99.99
67275;DHT22;55463;52.324;5.122;2023-03-08T07:25:28;0.03;99.99
67275;DHT22;55463;52.324;5.122;2023-03-08T07:27:53;0.02;99.99
67275;DHT22;55463;52.324;5.122;2023-03-08T07:30:19;0.03;99.99
67275;DHT22;55463;52.324;5.122;2023-03-08T07:32:45;0.09;99.99
67275;DHT22;55463;52.324;5.122;2023-03-08T07:35:13;0.16;99.99
67275;DHT22;55463;52.324;5.122;2023-03-08T07:37:39;0.16;99.99
67275;DHT22;55463;52.324;5.122;2023-03-08T07:40:05;0.17;99.99
67275;DHT22;55463;52.324;5.122;2023-03-08T07:42:31;0.20;99.99
67275;DHT22;55463;52.324;5.122;2023-03-08T07:44:57;0.17;99.99
67275;DHT22;55463;52.324;5.122;2023-03-08T07:47:22;0.20;99.99
67275;DHT22;55463;52.324;5.122;2023-03-08T07:49:48;0.22;99.99
67275;DHT22;55463;52.324;5.122;2023-03-08T07:52:13;0.34;99.99
67275;DHT22;55463;52.324;5.122;2023-03-08T07:54:39;0.26;99.99
67275;DHT22;55463;52.324;5.122;2023-03-08T07:57:04;0.30;99.99
67275;DHT22;55463;52.324;5.122;2023-03-08T07:59:30;0.29;99.99
67275;DHT22;55463;52.324;5.122;2023-03-08T08:01:56;0.24;99.99
67275;DHT22;55463;52.324;5.122;2023-03-08T08:04:21;0.29;99.99
67275;DHT22;55463;52.324;5.122;2023-03-08T08:06:47;0.33;99.99
67275;DHT22;55463;52.324;5.122;2023-03-08T08:09:13;0.39;99.99
67275;DHT22;55463;52.324;5.122;2023-03-08T08:11:40;0.36;99.99
67275;DHT22;55463;52.324;5.122;2023-03-08T08:14:05;0.49;99.99
67275;DHT22;55463;52.324;5.122;2023-03-08T08:16:31;0.46;99.99
67275;DHT22;55463;52.324;5.122;2023-03-08T08:18:56;0.36;99.99
67275;DHT22;55463;52.324;5.122;2023-03-08T08:21:22;0.39;99.99
67275;DHT22;55463;52.324;5.122;2023-03-08T08:23:47;0.40;99.99
67275;DHT22;55463;52.324;5.122;2023-03-08T08:26:18;0.49;99.99
67275;DHT22;55463;52.324;5.122;2023-03-08T08:28:46;0.37;99.99
67275;DHT22;55463;52.324;5.122;2023-03-08T08:31:14;0.39;99.99
67275;DHT22;55463;52.324;5.122;2023-03-08T08:33:40;0.40;99.99
67275;DHT22;55463;52.324;5.122;2023-03-08T08:36:08;0.47;99.99
67275;DHT22;55463;52.324;5.122;2023-03-08T08:38:34;0.65;99.99
67275;DHT22;55463;52.324;5.122;2023-03-08T08:41:01;0.65;99.99
67275;DHT22;55463;52.324;5.122;2023-03-08T08:43:28;0.65;99.99
67275;DHT22;55463;52.324;5.122;2023-03-08T08:45:55;0.71;99.99
67275;DHT22;55463;52.324;5.122;2023-03-08T08:48:22;0.74;99.99
67275;DHT22;55463;52.324;5.122;2023-03-08T08:50:48;0.91;99.99
67275;DHT22;55463;52.324;5.122;2023-03-08T08:53:13;1.06;99.99
67275;DHT22;55463;52.324;5.122;2023-03-08T08:55:39;0.96;99.99
67275;DHT22;55463;52.324;5.122;2023-03-08T08:58:05;0.88;99.99
67275;DHT22;55463;52.324;5.122;2023-03-08T09:00:32;0.84;99.99
67275;DHT22;55463;52.324;5.122;2023-03-08T09:02:59;0.89;99.99
67275;DHT22;55463;52.324;5.122;2023-03-08T09:05:24;1.07;99.99
67275;DHT22;55463;52.324;5.122;2023-03-08T09:07:52;0.99;99.99
67275;DHT22;55463;52.324;5.122;2023-03-08T09:10:18;1.13;99.99
67275;DHT22;55463;52.324;5.122;2023-03-08T09:12:44;1.16;99.99
67275;DHT22;55463;52.324;5.122;2023-03-08T09:15:09;1.16;99.99
67275;DHT22;55463;52.324;5.122;2023-03-08T09:17:37;1.36;99.99
67275;DHT22;55463;52.324;5.122;2023-03-08T09:20:03;1.37;99.99
67275;DHT22;55463;52.324;5.122;2023-03-08T09:22:31;1.44;99.99
67275;DHT22;55463;52.324;5.122;2023-03-08T09:24:56;1.55;99.99
67275;DHT22;55463;52.324;5.122;2023-03-08T09:27:22;1.65;99.99
67275;DHT22;55463;52.324;5.122;2023-03-08T09:29:47;1.77;99.99
67275;DHT22;55463;52.324;5.122;2023-03-08T09:32:13;1.77;99.99
67275;DHT22;55463;52.324;5.122;2023-03-08T09:34:38;1.85;99.99
67275;DHT22;55463;52.324;5.122;2023-03-08T09:37:04;1.91;99.99
67275;DHT22;55463;52.324;5.122;2023-03-08T09:39:31;1.94;99.99
67275;DHT22;55463;52.324;5.122;2023-03-08T09:41:59;2.06;99.99
67275;DHT22;55463;52.324;5.122;2023-03-08T09:44:47;2.14;99.99
67275;DHT22;55463;52.324;5.122;2023-03-08T09:52:37;2.69;99.99
67275;DHT22;55463;52.324;5.122;2023-03-08T09:55:10;2.95;99.99
67275;DHT22;55463;52.324;5.122;2023-03-08T09:57:42;3.02;99.99
67275;DHT22;55463;52.324;5.122;2023-03-08T10:00:18;3.02;99.99
67275;DHT22;55463;52.324;5.122;2023-03-08T10:08:15;3.09;99.99
67275;DHT22;55463;52.324;5.122;2023-03-08T10:13:40;3.44;99.99
67275;DHT22;55463;52.324;5.122;2023-03-08T10:16:25;3.74;99.99
67275;DHT22;55463;52.324;5.122;2023-03-08T10:18:55;3.92;99.99
67275;DHT22;55463;52.324;5.122;2023-03-08T10:21:24;3.67;99.99
67275;DHT22;55463;52.324;5.122;2023-03-08T10:24:13;3.76;99.99
67275;DHT22;55463;52.324;5.122;2023-03-08T10:26:40;3.87;99.99
67275;DHT22;55463;52.324;5.122;2023-03-08T10:29:11;3.86;99.99
67275;DHT22;55463;52.324;5.122;2023-03-08T10:31:37;3.92;99.99
67275;DHT22;55463;52.324;5.122;2023-03-08T10:34:15;4.17;99.99
67275;DHT22;55463;52.324;5.122;2023-03-08T10:36:51;4.29;99.99
67275;DHT22;55463;52.324;5.122;2023-03-08T10:39:18;4.20;99.99
67275;DHT22;55463;52.324;5.122;2023-03-08T10:41:48;4.16;99.99
67275;DHT22;55463;52.324;5.122;2023-03-08T10:44:57;4.07;99.99
67275;DHT22;55463;52.324;5.122;2023-03-08T10:47:30;4.04;99.99
67275;DHT22;55463;52.324;5.122;2023-03-08T10:50:11;4.10;99.99
67275;DHT22;55463;52.324;5.122;2023-03-08T10:52:38;3.99;99.99
67275;DHT22;55463;52.324;5.122;2023-03-08T10:55:16;3.97;99.99
67275;DHT22;55463;52.324;5.122;2023-03-08T10:57:57;3.89;99.99
67275;DHT22;55463;52.324;5.122;2023-03-08T11:00:36;3.71;99.99
67275;DHT22;55463;52.324;5.122;2023-03-08T11:03:14;3.68;99.99
67275;DHT22;55463;52.324;5.122;2023-03-08T11:05:50;3.75;99.99
67275;DHT22;55463;52.324;5.122;2023-03-08T11:08:19;3.93;99.99
67275;DHT22;55463;52.324;5.122;2023-03-08T11:10:45;4.03;99.99
67275;DHT22;55463;52.324;5.122;2023-03-08T11:13:30;3.85;99.99
67275;DHT22;55463;52.324;5.122;2023-03-08T11:21:42;4.06;99.99
67275;DHT22;55463;52.324;5.122;2023-03-08T11:24:50;4.04;99.99
67275;DHT22;55463;52.324;5.122;2023-03-08T11:27:27;4.03;99.99
67275;DHT22;55463;52.324;5.122;2023-03-08T11:37:58;4.18;99.99
67275;DHT22;55463;52.324;5.122;2023-03-08T11:59:09;4.69;99.99
67275;DHT22;55463;52.324;5.122;2023-03-08T12:04:29;4.82;99.99
67275;DHT22;55463;52.324;5.122;2023-03-08T12:06:59;4.89;99.99
67275;DHT22;55463;52.324;5.122;2023-03-08T12:12:31;4.80;99.33
67275;DHT22;55463;52.324;5.122;2023-03-08T12:17:34;4.64;99.99
67275;DHT22;55463;52.324;5.122;2023-03-08T12:20:03;4.49;99.99
67275;DHT22;55463;52.324;5.122;2023-03-08T12:22:45;4.42;99.99
67275;DHT22;55463;52.324;5.122;2023-03-08T12:28:03;4.69;99.99
67275;DHT22;55463;52.324;5.122;2023-03-08T12:33:15;4.44;99.99
67275;DHT22;55463;52.324;5.122;2023-03-08T12:35:56;4.30;99.86
67275;DHT22;55463;52.324;5.122;2023-03-08T12:40:52;4.02;99.99
67275;DHT22;55463;52.324;5.122;2023-03-08T12:45:46;3.76;99.99
67275;DHT22;55463;52.324;5.122;2023-03-08T12:48:19;3.68;99.99
67275;DHT22;55463;52.324;5.122;2023-03-08T12:53:29;3.74;99.99
67275;DHT22;55463;52.324;5.122;2023-03-08T12:58:56;4.20;99.99
67275;DHT22;55463;52.324;5.122;2023-03-08T13:01:39;4.29;99.99
67275;DHT22;55463;52.324;5.122;2023-03-08T13:04:36;4.36;99.99
67275;DHT22;55463;52.324;5.122;2023-03-08T13:14:43;4.41;99.99
67275;DHT22;55463;52.324;5.122;2023-03-08T13:19:58;4.45;99.99
67275;DHT22;55463;52.324;5.122;2023-03-08T13:22:36;4.31;98.46
67275;DHT22;55463;52.324;5.122;2023-03-08T13:25:11;4.38;99.99
67275;DHT22;55463;52.324;5.122;2023-03-08T13:27:55;4.36;99.69
67275;DHT22;55463;52.324;5.122;2023-03-08T13:32:48;4.42;98.28
67275;DHT22;55463;52.324;5.122;2023-03-08T13:35:15;4.38;99.99
67275;DHT22;55463;52.324;5.122;2023-03-08T13:37:41;4.54;99.63
67275;DHT22;55463;52.324;5.122;2023-03-08T13:40:15;4.47;99.99
67275;DHT22;55463;52.324;5.122;2023-03-08T13:43:03;4.34;98.92
67275;DHT22;55463;52.324;5.122;2023-03-08T13:45:32;4.07;99.60
67275;DHT22;55463;52.324;5.122;2023-03-08T13:47:59;4.21;99.99
67275;DHT22;55463;52.324;5.122;2023-03-08T13:50:36;4.16;99.99
67275;DHT22;55463;52.324;5.122;2023-03-08T13:53:12;4.21;99.99
67275;DHT22;55463;52.324;5.122;2023-03-08T13:55:42;4.27;99.99
67275;DHT22;55463;52.324;5.122;2023-03-08T14:03:28;4.24;99.99
67275;DHT22;55463;52.324;5.122;2023-03-08T14:05:54;4.38;99.99
67275;DHT22;55463;52.324;5.122;2023-03-08T14:08:24;4.40;99.99
67275;DHT22;55463;52.324;5.122;2023-03-08T14:10:57;4.47;99.99
67275;DHT22;55463;52.324;5.122;2023-03-08T14:13:26;4.49;99.99
67275;DHT22;55463;52.324;5.122;2023-03-08T14:15:55;4.61;99.99
67275;DHT22;55463;52.324;5.122;2023-03-08T14:18:29;4.71;98.89
67275;DHT22;55463;52.324;5.122;2023-03-08T14:21:00;4.68;99.99
67275;DHT22;55463;52.324;5.122;2023-03-08T14:23:26;4.58;99.99
67275;DHT22;55463;52.324;5.122;2023-03-08T14:25:56;4.52;99.99
67275;DHT22;55463;52.324;5.122;2023-03-08T14:28:37;4.40;98.08
67275;DHT22;55463;52.324;5.122;2023-03-08T14:31:03;4.41;98.28
67275;DHT22;55463;52.324;5.122;2023-03-08T14:33:28;4.24;99.99
67275;DHT22;55463;52.324;5.122;2023-03-08T14:35:56;4.21;99.99
67275;DHT22;55463;52.324;5.122;2023-03-08T14:38:26;4.29;99.99
67275;DHT22;55463;52.324;5.122;2023-03-08T14:40:52;4.31;99.88
67275;DHT22;55463;52.324;5.122;2023-03-08T14:43:21;4.29;98.47
67275;DHT22;55463;52.324;5.122;2023-03-08T14:51:03;4.18;99.99
67275;DHT22;55463;52.324;5.122;2023-03-08T14:53:35;4.23;99.99
67275;DHT22;55463;52.324;5.122;2023-03-08T14:56:15;4.17;98.99
67275;DHT22;55463;52.324;5.122;2023-03-08T14:58:43;4.14;97.83
67275;DHT22;55463;52.324;5.122;2023-03-08T15:01:10;4.18;99.99
67275;DHT22;55463;52.324;5.122;2023-03-08T15:03:35;4.14;99.99
67275;DHT22;55463;52.324;5.122;2023-03-08T15:06:14;4.16;99.99
67275;DHT22;55463;52.324;5.122;2023-03-08T15:08:40;4.21;99.99
67275;DHT22;55463;52.324;5.122;2023-03-08T15:11:06;4.30;99.15
67275;DHT22;55463;52.324;5.122;2023-03-08T15:13:32;4.44;99.59
67275;DHT22;55463;52.324;5.122;2023-03-08T15:15:57;4.51;99.99
67275;DHT22;55463;52.324;5.122;2023-03-08T15:18:22;4.37;99.99
67275;DHT22;55463;52.324;5.122;2023-03-08T15:20:49;4.25;99.99
67275;DHT22;55463;52.324;5.122;2023-03-08T15:23:21;4.27;99.00
67275;DHT22;55463;52.324;5.122;2023-03-08T15:25:47;4.31;99.99
67275;DHT22;55463;52.324;5.122;2023-03-08T15:28:14;4.17;99.99
67275;DHT22;55463;52.324;5.122;2023-03-08T15:30:40;4.10;99.34
67275;DHT22;55463;52.324;5.122;2023-03-08T15:33:06;4.13;96.67
67275;DHT22;55463;52.324;5.122;2023-03-08T15:35:31;4.11;99.65
67275;DHT22;55463;52.324;5.122;2023-03-08T15:37:57;3.92;99.62
67275;DHT22;55463;52.324;5.122;2023-03-08T15:40:25;4.00;99.44
67275;DHT22;55463;52.324;5.122;2023-03-08T15:42:51;3.97;98.03
67275;DHT22;55463;52.324;5.122;2023-03-08T15:45:16;3.90;99.99
67275;DHT22;55463;52.324;5.122;2023-03-08T15:47:42;3.85;99.99
67275;DHT22;55463;52.324;5.122;2023-03-08T15:50:16;3.90;99.99
67275;DHT22;55463;52.324;5.122;2023-03-08T15:52:42;3.89;99.99
67275;DHT22;55463;52.324;5.122;2023-03-08T15:55:10;3.90;99.22
67275;DHT22;55463;52.324;5.122;2023-03-08T15:57:36;3.86;99.99
67275;DHT22;55463;52.324;5.122;2023-03-08T16:00:03;3.72;99.45
67275;DHT22;55463;52.324;5.122;2023-03-08T16:02:32;3.68;99.31
67275;DHT22;55463;52.324;5.122;2023-03-08T16:04:57;3.59;99.99
67275;DHT22;55463;52.324;5.122;2023-03-08T16:07:22;3.57;99.19
67275;DHT22;55463;52.324;5.122;2023-03-08T16:09:48;3.40;99.99
67275;DHT22;55463;52.324;5.122;2023-03-08T16:12:13;3.35;99.99
67275;DHT22;55463;52.324;5.122;2023-03-08T16:14:39;3.30;99.99
67275;DHT22;55463;52.324;5.122;2023-03-08T16:17:09;3.13;99.99
67275;DHT22;55463;52.324;5.122;2023-03-08T16:19:35;3.02;99.99
67275;DHT22;55463;52.324;5.122;2023-03-08T16:22:01;2.95;99.99
67275;DHT22;55463;52.324;5.122;2023-03-08T16:24:27;2.99;99.99
67275;DHT22;55463;52.324;5.122;2023-03-08T16:26:53;2.95;99.99
67275;DHT22;55463;52.324;5.122;2023-03-08T16:29:19;2.91;99.99
67275;DHT22;55463;52.324;5.122;2023-03-08T16:31:44;2.92;99.99
67275;DHT22;55463;52.324;5.122;2023-03-08T16:34:10;2.96;99.99
67275;DHT22;55463;52.324;5.122;2023-03-08T16:36:36;2.97;99.99
67275;DHT22;55463;52.324;5.122;2023-03-08T16:39:02;2.86;99.99
67275;DHT22;55463;52.324;5.122;2023-03-08T16:41:28;2.77;99.99
67275;DHT22;55463;52.324;5.122;2023-03-08T16:43:54;2.65;99.99
67275;DHT22;55463;52.324;5.122;2023-03-08T16:46:21;2.81;99.99
67275;DHT22;55463;52.324;5.122;2023-03-08T16:48:48;2.66;99.99
67275;DHT22;55463;52.324;5.122;2023-03-08T16:51:15;2.58;99.99
67275;DHT22;55463;52.324;5.122;2023-03-08T16:53:41;2.68;99.99
67275;DHT22;55463;52.324;5.122;2023-03-08T16:56:07;2.61;99.99
67275;DHT22;55463;52.324;5.122;2023-03-08T16:58:33;2.50;99.99
67275;DHT22;55463;52.324;5.122;2023-03-08T17:00:58;2.51;99.99
67275;DHT22;55463;52.324;5.122;2023-03-08T17:03:24;2.57;99.99
67275;DHT22;55463;52.324;5.122;2023-03-08T17:05:49;2.44;99.99
67275;DHT22;55463;52.324;5.122;2023-03-08T17:08:15;2.50;99.99
67275;DHT22;55463;52.324;5.122;2023-03-08T17:10:43;2.41;99.99
67275;DHT22;55463;52.324;5.122;2023-03-08T17:13:09;2.45;99.99
67275;DHT22;55463;52.324;5.122;2023-03-08T17:15:43;2.48;99.99
67275;DHT22;55463;52.324;5.122;2023-03-08T17:18:11;2.44;99.99
67275;DHT22;55463;52.324;5.122;2023-03-08T17:20:40;2.38;99.99
67275;DHT22;55463;52.324;5.122;2023-03-08T17:23:06;2.36;99.99